sensor_id;sensor_type;location;lat;lon;timestamp;pressure;altitude;pressure_sealevel;temperature;humidity
20620;BME280;10469;42.720;23.252;2023-02-19T00:01:14;95155.53;;;7.11;100.00
20620;BME280;10469;42.720;23.252;2023-02-19T00:03:41;95165.44;;;6.84;100.00
20620;BME280;10469;42.720;23.252;2023-02-19T00:06:09;95151.06;;;6.59;100.00
20620;BME280;10469;42.720;23.252;2023-02-19T00:08:36;95159.91;;;6.79;100.00
20620;BME280;10469;42.720;23.252;2023-02-19T00:11:07;95151.69;;;6.81;100.00
20620;BME280;10469;42.720;23.252;2023-02-19T00:13:37;95133.44;;;6.84;100.00
20620;BME280;10469;42.720;23.252;2023-02-19T00:16:07;95146.34;;;6.94;100.00
20620;BME280;10469;42.720;23.252;2023-02-19T00:18:33;95137.75;;;6.92;100.00
20620;BME280;10469;42.720;23.252;2023-02-19T00:20:59;95145.53;;;6.93;100.00
20620;BME280;10469;42.720;23.252;2023-02-19T00:23:24;95136.09;;;6.97;100.00
20620;BME280;10469;42.720;23.252;2023-02-19T00:25:51;95111.69;;;6.94;100.00
20620;BME280;10469;42.720;23.252;2023-02-19T00:28:16;95131.16;;;6.94;100.00
20620;BME280;10469;42.720;23.252;2023-02-19T00:30:42;95124.78;;;7.02;100.00
20620;BME280;10469;42.720;23.252;2023-02-19T00:33:07;95130.78;;;6.84;100.00
20620;BME280;10469;42.720;23.252;2023-02-19T00:35:33;95121.94;;;6.77;100.00
20620;BME280;10469;42.720;23.252;2023-02-19T00:37:59;95135.06;;;6.85;100.00
20620;BME280;10469;42.720;23.252;2023-02-19T00:40:24;95121.13;;;6.83;100.00
20620;BME280;10469;42.720;23.252;2023-02-19T00:42:50;95119.09;;;6.92;100.00
20620;BME280;10469;42.720;23.252;2023-02-19T00:45:16;95109.44;;;6.84;100.00
20620;BME280;10469;42.720;23.252;2023-02-19T00:47:41;95098.38;;;6.81;100.00
20620;BME280;10469;42.720;23.252;2023-02-19T00:50:07;95088.72;;;6.86;100.00
20620;BME280;10469;42.720;23.252;2023-02-19T00:52:32;95097.31;;;6.95;100.00
20620;BME280;10469;42.720;23.252;2023-02-19T00:54:58;95089.53;;;6.93;100.00
20620;BME280;10469;42.720;23.252;2023-02-19T00:57:23;95089.09;;;7.10;100.00
20620;BME280;10469;42.720;23.252;2023-02-19T00:59:49;95088.41;;;7.27;100.00
20620;BME280;10469;42.720;23.252;2023-02-19T01:02:14;95097.06;;;7.16;100.00
20620;BME280;10469;42.720;23.252;2023-02-19T01:04:40;95085.38;;;7.11;100.00
20620;BME280;10469;42.720;23.252;2023-02-19T01:07:05;95082.94;;;7.09;100.00
20620;BME280;10469;42.720;23.252;2023-02-19T01:09:30;95089.88;;;7.23;100.00
20620;BME280;10469;42.720;23.252;2023-02-19T01:11:56;95101.09;;;7.39;100.00
20620;BME280;10469;42.720;23.252;2023-02-19T01:14:21;95094.13;;;7.38;100.00
20620;BME280;10469;42.720;23.252;2023-02-19T01:16:46;95094.94;;;7.38;100.00
20620;BME280;10469;42.720;23.252;2023-02-19T01:19:12;95097.50;;;7.13;100.00
20620;BME280;10469;42.720;23.252;2023-02-19T01:21:39;95087.72;;;6.87;100.00
20620;BME280;10469;42.720;23.252;2023-02-19T01:24:04;95091.00;;;6.83;100.00
20620;BME280;10469;42.720;23.252;2023-02-19T01:26:31;95096.56;;;6.41;100.00
20620;BME280;10469;42.720;23.252;2023-02-19T01:29:00;95094.91;;;6.34;100.00
20620;BME280;10469;42.720;23.252;2023-02-19T01:31:26;95098.19;;;6.29;100.00
20620;BME280;10469;42.720;23.252;2023-02-19T01:33:58;95098.81;;;6.24;100.00
20620;BME280;10469;42.720;23.252;2023-02-19T01:36:24;95106.00;;;6.37;100.00
20620;BME280;10469;42.720;23.252;2023-02-19T01:38:50;95107.63;;;6.45;100.00
20620;BME280;10469;42.720;23.252;2023-02-19T01:41:19;95120.53;;;6.68;100.00
20620;BME280;10469;42.720;23.252;2023-02-19T01:46:53;95131.81;;;6.83;100.00
20620;BME280;10469;42.720;23.252;2023-02-19T01:49:38;95119.09;;;6.78;100.00
20620;BME280;10469;42.720;23.252;2023-02-19T01:54:31;95124.22;;;6.87;100.00
20620;BME280;10469;42.720;23.252;2023-02-19T01:57:01;95125.56;;;7.22;100.00
20620;BME280;10469;42.720;23.252;2023-02-19T01:59:29;95124.00;;;7.60;100.00
20620;BME280;10469;42.720;23.252;2023-02-19T02:01:55;95111.84;;;7.70;100.00
20620;BME280;10469;42.720;23.252;2023-02-19T02:04:20;95131.25;;;8.29;100.00
20620;BME280;10469;42.720;23.252;2023-02-19T02:06:52;95142.09;;;7.51;100.00
20620;BME280;10469;42.720;23.252;2023-02-19T02:09:21;95127.66;;;7.14;100.00
20620;BME280;10469;42.720;23.252;2023-02-19T02:12:06;95115.38;;;6.99;100.00
20620;BME280;10469;42.720;23.252;2023-02-19T02:14:35;95135.03;;;6.98;100.00
20620;BME280;10469;42.720;23.252;2023-02-19T02:17:30;95138.16;;;6.75;100.00
20620;BME280;10469;42.720;23.252;2023-02-19T02:23:02;95128.09;;;6.24;100.00
20620;BME280;10469;42.720;23.252;2023-02-19T02:26:27;95140.63;;;6.37;100.00
20620;BME280;10469;42.720;23.252;2023-02-19T02:36:30;95127.69;;;6.21;100.00
20620;BME280;10469;42.720;23.252;2023-02-19T02:38:59;95145.72;;;6.25;100.00
20620;BME280;10469;42.720;23.252;2023-02-19T02:41:27;95155.31;;;6.07;100.00
20620;BME280;10469;42.720;23.252;2023-02-19T02:43:53;95153.50;;;6.20;100.00
20620;BME280;10469;42.720;23.252;2023-02-19T02:46:22;95143.88;;;6.19;100.00
20620;BME280;10469;42.720;23.252;2023-02-19T02:51:24;95150.03;;;6.46;100.00
20620;BME280;10469;42.720;23.252;2023-02-19T02:54:11;95141.44;;;6.51;100.00
20620;BME280;10469;42.720;23.252;2023-02-19T02:56:58;95143.28;;;6.64;100.00
20620;BME280;10469;42.720;23.252;2023-02-19T02:59:28;95151.69;;;6.74;100.00
20620;BME280;10469;42.720;23.252;2023-02-19T03:02:02;95160.91;;;6.71;100.00
20620;BME280;10469;42.720;23.252;2023-02-19T03:07:44;95156.81;;;6.36;100.00
20620;BME280;10469;42.720;23.252;2023-02-19T03:10:38;95167.88;;;6.46;100.00
20620;BME280;10469;42.720;23.252;2023-02-19T03:13:08;95162.13;;;6.42;100.00
20620;BME280;10469;42.720;23.252;2023-02-19T03:15:59;95170.31;;;6.27;100.00
20620;BME280;10469;42.720;23.252;2023-02-19T03:18:47;95164.19;;;6.27;100.00
20620;BME280;10469;42.720;23.252;2023-02-19T03:21:34;95157.94;;;5.93;100.00
20620;BME280;10469;42.720;23.252;2023-02-19T03:24:03;95161.97;;;5.83;100.00
20620;BME280;10469;42.720;23.252;2023-02-19T03:26:49;95178.31;;;5.66;100.00
20620;BME280;10469;42.720;23.252;2023-02-19T03:29:20;95175.00;;;5.64;100.00
20620;BME280;10469;42.720;23.252;2023-02-19T03:31:53;95194.28;;;5.73;100.00
20620;BME280;10469;42.720;23.252;2023-02-19T03:34:25;95191.25;;;5.83;100.00
20620;BME280;10469;42.720;23.252;2023-02-19T03:37:17;95185.38;;;5.94;100.00
20620;BME280;10469;42.720;23.252;2023-02-19T03:39:49;95185.00;;;5.97;100.00
20620;BME280;10469;42.720;23.252;2023-02-19T03:42:46;95190.97;;;6.12;100.00
20620;BME280;10469;42.720;23.252;2023-02-19T03:45:30;95203.09;;;6.28;100.00
20620;BME280;10469;42.720;23.252;2023-02-19T03:48:25;95189.97;;;6.33;100.00
20620;BME280;10469;42.720;23.252;2023-02-19T03:51:01;95206.81;;;6.40;100.00
20620;BME280;10469;42.720;23.252;2023-02-19T03:59:01;95211.72;;;6.50;100.00
20620;BME280;10469;42.720;23.252;2023-02-19T04:01:42;95209.66;;;6.39;100.00
20620;BME280;10469;42.720;23.252;2023-02-19T04:04:19;95216.44;;;6.54;100.00
20620;BME280;10469;42.720;23.252;2023-02-19T04:06:51;95211.75;;;6.43;100.00
20620;BME280;10469;42.720;23.252;2023-02-19T04:09:19;95213.34;;;6.31;100.00
20620;BME280;10469;42.720;23.252;2023-02-19T04:11:47;95210.25;;;6.34;100.00
20620;BME280;10469;42.720;23.252;2023-02-19T04:14:18;95205.97;;;6.33;100.00
20620;BME280;10469;42.720;23.252;2023-02-19T04:16:50;95214.38;;;6.37;100.00
20620;BME280;10469;42.720;23.252;2023-02-19T04:19:20;95221.34;;;6.51;100.00
20620;BME280;10469;42.720;23.252;2023-02-19T04:21:48;95224.03;;;6.51;100.00
20620;BME280;10469;42.720;23.252;2023-02-19T04:24:21;95231.25;;;6.70;100.00
20620;BME280;10469;42.720;23.252;2023-02-19T04:26:47;95215.06;;;6.78;100.00
20620;BME280;10469;42.720;23.252;2023-02-19T04:29:13;95222.41;;;6.76;100.00
20620;BME280;10469;42.720;23.252;2023-02-19T04:31:38;95230.81;;;6.80;100.00
20620;BME280;10469;42.720;23.252;2023-02-19T04:34:04;95228.19;;;6.87;100.00
20620;BME280;10469;42.720;23.252;2023-02-19T04:36:31;95226.94;;;6.83;100.00
20620;BME280;10469;42.720;23.252;2023-02-19T04:38:56;95234.50;;;6.86;100.00
20620;BME280;10469;42.720;23.252;2023-02-19T04:41:22;95236.78;;;6.75;100.00
20620;BME280;10469;42.720;23.252;2023-02-19T04:43:47;95244.56;;;6.70;100.00
20620;BME280;10469;42.720;23.252;2023-02-19T04:46:13;95229.38;;;6.64;100.00
20620;BME280;10469;42.720;23.252;2023-02-19T04:48:38;95238.19;;;6.71;100.00
20620;BME280;10469;42.720;23.252;2023-02-19T04:51:05;95245.19;;;6.79;100.00
20620;BME280;10469;42.720;23.252;2023-02-19T04:53:31;95238.59;;;6.68;100.00
20620;BME280;10469;42.720;23.252;2023-02-19T04:55:56;95244.16;;;6.80;100.00
20620;BME280;10469;42.720;23.252;2023-02-19T04:58:22;95248.06;;;6.84;100.00
20620;BME280;10469;42.720;23.252;2023-02-19T05:00:51;95244.56;;;6.84;100.00
20620;BME280;10469;42.720;23.252;2023-02-19T05:03:16;95252.56;;;6.97;100.00
20620;BME280;10469;42.720;23.252;2023-02-19T05:05:41;95244.97;;;6.94;100.00
20620;BME280;10469;42.720;23.252;2023-02-19T05:08:07;95241.91;;;6.90;100.00
20620;BME280;10469;42.720;23.252;2023-02-19T05:10:32;95232.91;;;6.91;100.00
20620;BME280;10469;42.720;23.252;2023-02-19T05:12:58;95250.91;;;6.89;100.00
20620;BME280;10469;42.720;23.252;2023-02-19T05:15:24;95246.22;;;6.98;100.00
20620;BME280;10469;42.720;23.252;2023-02-19T05:17:49;95247.84;;;6.99;100.00
20620;BME280;10469;42.720;23.252;2023-02-19T05:20:15;95252.56;;;7.03;100.00
20620;BME280;10469;42.720;23.252;2023-02-19T05:22:40;95249.09;;;7.10;100.00
20620;BME280;10469;42.720;23.252;2023-02-19T05:25:06;95246.63;;;7.01;100.00
20620;BME280;10469;42.720;23.252;2023-02-19T05:27:31;95248.88;;;7.18;100.00
20620;BME280;10469;42.720;23.252;2023-02-19T05:29:57;95255.63;;;7.20;100.00
20620;BME280;10469;42.720;23.252;2023-02-19T05:32:22;95242.50;;;7.32;100.00
20620;BME280;10469;42.720;23.252;2023-02-19T05:34:47;95254.38;;;7.49;100.00
20620;BME280;10469;42.720;23.252;2023-02-19T05:37:14;95240.00;;;7.57;100.00
20620;BME280;10469;42.720;23.252;2023-02-19T05:39:40;95228.44;;;7.76;100.00
20620;BME280;10469;42.720;23.252;2023-02-19T05:42:05;95251.31;;;8.17;100.00
20620;BME280;10469;42.720;23.252;2023-02-19T05:44:31;95257.22;;;8.26;100.00
20620;BME280;10469;42.720;23.252;2023-02-19T05:46:56;95243.00;;;8.77;98.30
20620;BME280;10469;42.720;23.252;2023-02-19T05:49:22;95261.75;;;9.27;94.05
20620;BME280;10469;42.720;23.252;2023-02-19T05:51:49;95244.56;;;8.85;94.08
20620;BME280;10469;42.720;23.252;2023-02-19T05:54:15;95247.38;;;9.21;91.44
20620;BME280;10469;42.720;23.252;2023-02-19T05:56:41;95258.63;;;10.10;87.19
20620;BME280;10469;42.720;23.252;2023-02-19T05:59:17;95258.69;;;10.89;83.48
20620;BME280;10469;42.720;23.252;2023-02-19T06:01:43;95282.47;;;10.55;83.60
20620;BME280;10469;42.720;23.252;2023-02-19T06:04:09;95255.81;;;11.14;79.02
20620;BME280;10469;42.720;23.252;2023-02-19T06:06:35;95277.69;;;11.29;76.06
20620;BME280;10469;42.720;23.252;2023-02-19T06:09:02;95273.50;;;12.15;74.65
20620;BME280;10469;42.720;23.252;2023-02-19T06:11:28;95281.78;;;11.55;74.34
20620;BME280;10469;42.720;23.252;2023-02-19T06:13:54;95282.47;;;12.33;68.72
20620;BME280;10469;42.720;23.252;2023-02-19T06:16:19;95283.69;;;11.66;71.18
20620;BME280;10469;42.720;23.252;2023-02-19T06:18:46;95291.47;;;11.56;70.88
20620;BME280;10469;42.720;23.252;2023-02-19T06:21:13;95292.13;;;12.57;68.57
20620;BME280;10469;42.720;23.252;2023-02-19T06:23:39;95289.16;;;13.27;68.03
20620;BME280;10469;42.720;23.252;2023-02-19T06:28:39;95287.25;;;12.42;67.83
20620;BME280;10469;42.720;23.252;2023-02-19T06:31:06;95294.63;;;11.65;71.17
20620;BME280;10469;42.720;23.252;2023-02-19T06:33:32;95289.13;;;12.42;69.55
20620;BME280;10469;42.720;23.252;2023-02-19T06:35:59;95302.84;;;11.16;73.62
20620;BME280;10469;42.720;23.252;2023-02-19T06:38:26;95300.88;;;10.82;78.36
20620;BME280;10469;42.720;23.252;2023-02-19T06:40:51;95300.13;;;10.26;80.78
20620;BME280;10469;42.720;23.252;2023-02-19T06:43:17;95310.16;;;10.49;81.72
20620;BME280;10469;42.720;23.252;2023-02-19T06:45:42;95308.44;;;11.03;80.74
20620;BME280;10469;42.720;23.252;2023-02-19T06:48:08;95305.44;;;11.88;76.24
20620;BME280;10469;42.720;23.252;2023-02-19T06:50:33;95297.38;;;12.52;72.10
20620;BME280;10469;42.720;23.252;2023-02-19T06:52:58;95297.69;;;11.80;74.62
20620;BME280;10469;42.720;23.252;2023-02-19T06:55:24;95299.56;;;11.44;74.67
20620;BME280;10469;42.720;23.252;2023-02-19T06:57:49;95301.56;;;11.07;77.58
20620;BME280;10469;42.720;23.252;2023-02-19T07:00:15;95315.53;;;11.51;77.79
20620;BME280;10469;42.720;23.252;2023-02-19T07:02:40;95302.72;;;11.53;76.73
20620;BME280;10469;42.720;23.252;2023-02-19T07:05:06;95318.13;;;11.69;76.30
20620;BME280;10469;42.720;23.252;2023-02-19T07:07:31;95307.81;;;13.17;71.06
20620;BME280;10469;42.720;23.252;2023-02-19T07:09:57;95311.03;;;13.31;67.82
20620;BME280;10469;42.720;23.252;2023-02-19T07:12:22;95302.16;;;12.90;69.26
20620;BME280;10469;42.720;23.252;2023-02-19T07:14:48;95306.41;;;13.60;67.78
20620;BME280;10469;42.720;23.252;2023-02-19T07:17:13;95304.84;;;13.47;66.09
20620;BME280;10469;42.720;23.252;2023-02-19T07:19:38;95292.25;;;13.36;65.93
20620;BME280;10469;42.720;23.252;2023-02-19T07:22:04;95283.97;;;13.09;66.65
20620;BME280;10469;42.720;23.252;2023-02-19T07:24:29;95295.81;;;14.48;62.85
20620;BME280;10469;42.720;23.252;2023-02-19T07:26:54;95291.63;;;14.79;61.31
20620;BME280;10469;42.720;23.252;2023-02-19T07:29:20;95291.69;;;14.62;61.77
20620;BME280;10469;42.720;23.252;2023-02-19T07:31:45;95274.38;;;16.03;58.24
20620;BME280;10469;42.720;23.252;2023-02-19T07:34:11;95282.22;;;16.52;56.08
20620;BME280;10469;42.720;23.252;2023-02-19T07:36:36;95277.34;;;15.65;57.03
20620;BME280;10469;42.720;23.252;2023-02-19T07:39:02;95277.81;;;16.89;54.59
20620;BME280;10469;42.720;23.252;2023-02-19T07:41:28;95265.31;;;16.83;52.86
20620;BME280;10469;42.720;23.252;2023-02-19T07:43:53;95276.00;;;16.52;55.11
20620;BME280;10469;42.720;23.252;2023-02-19T07:46:19;95270.84;;;18.15;52.03
20620;BME280;10469;42.720;23.252;2023-02-19T07:48:45;95250.25;;;17.33;51.19
20620;BME280;10469;42.720;23.252;2023-02-19T07:51:13;95271.41;;;18.22;51.47
20620;BME280;10469;42.720;23.252;2023-02-19T07:53:41;95265.59;;;18.54;49.07
20620;BME280;10469;42.720;23.252;2023-02-19T07:56:07;95270.84;;;18.15;49.06
20620;BME280;10469;42.720;23.252;2023-02-19T07:58:35;95272.25;;;17.67;49.71
20620;BME280;10469;42.720;23.252;2023-02-19T08:01:17;95260.56;;;17.71;49.47
20620;BME280;10469;42.720;23.252;2023-02-19T08:03:43;95265.72;;;19.43;46.18
20620;BME280;10469;42.720;23.252;2023-02-19T08:06:10;95251.72;;;21.14;42.69
20620;BME280;10469;42.720;23.252;2023-02-19T08:08:37;95258.19;;;21.42;40.43
20620;BME280;10469;42.720;23.252;2023-02-19T08:11:04;95255.69;;;19.78;42.33
20620;BME280;10469;42.720;23.252;2023-02-19T08:13:49;95266.53;;;20.65;41.91
20620;BME280;10469;42.720;23.252;2023-02-19T08:16:15;95254.69;;;20.75;41.38
20620;BME280;10469;42.720;23.252;2023-02-19T08:18:44;95259.69;;;21.86;39.89
20620;BME280;10469;42.720;23.252;2023-02-19T08:21:10;95257.25;;;20.66;40.18
20620;BME280;10469;42.720;23.252;2023-02-19T08:23:38;95262.28;;;19.27;41.85
20620;BME280;10469;42.720;23.252;2023-02-19T08:26:04;95257.66;;;18.73;43.61
20620;BME280;10469;42.720;23.252;2023-02-19T08:28:30;95250.84;;;19.70;42.69
20620;BME280;10469;42.720;23.252;2023-02-19T08:31:00;95254.88;;;18.89;43.05
20620;BME280;10469;42.720;23.252;2023-02-19T08:33:27;95251.97;;;20.75;40.96
20620;BME280;10469;42.720;23.252;2023-02-19T08:35:52;95255.41;;;22.59;37.51
20620;BME280;10469;42.720;23.252;2023-02-19T08:38:17;95245.75;;;22.01;37.47
20620;BME280;10469;42.720;23.252;2023-02-19T08:40:43;95241.72;;;22.87;35.23
20620;BME280;10469;42.720;23.252;2023-02-19T08:43:11;95237.66;;;22.70;34.89
20620;BME280;10469;42.720;23.252;2023-02-19T08:45:38;95232.16;;;21.83;36.57
20620;BME280;10469;42.720;23.252;2023-02-19T08:48:04;95241.25;;;21.78;36.67
20620;BME280;10469;42.720;23.252;2023-02-19T08:50:30;95237.06;;;22.46;35.83
20620;BME280;10469;42.720;23.252;2023-02-19T08:52:58;95233.63;;;22.54;35.95
20620;BME280;10469;42.720;23.252;2023-02-19T08:55:23;95214.34;;;20.77;37.53
20620;BME280;10469;42.720;23.252;2023-02-19T08:57:49;95230.59;;;19.81;41.17
20620;BME280;10469;42.720;23.252;2023-02-19T09:00:22;95229.06;;;21.89;38.81
20620;BME280;10469;42.720;23.252;2023-02-19T09:02:48;95224.00;;;23.34;36.29
20620;BME280;10469;42.720;23.252;2023-02-19T09:05:15;95223.41;;;22.46;36.24
20620;BME280;10469;42.720;23.252;2023-02-19T09:07:41;95202.22;;;25.07;33.04
20620;BME280;10469;42.720;23.252;2023-02-19T09:10:09;95202.84;;;25.04;32.29
20620;BME280;10469;42.720;23.252;2023-02-19T09:12:35;95204.28;;;26.32;31.62
20620;BME280;10469;42.720;23.252;2023-02-19T09:15:03;95194.56;;;23.53;33.57
20620;BME280;10469;42.720;23.252;2023-02-19T09:17:28;95187.91;;;25.36;33.79
20620;BME280;10469;42.720;23.252;2023-02-19T09:19:54;95198.75;;;24.04;33.50
20620;BME280;10469;42.720;23.252;2023-02-19T09:22:19;95185.50;;;25.17;33.43
20620;BME280;10469;42.720;23.252;2023-02-19T09:24:45;95200.50;;;25.46;31.79
20620;BME280;10469;42.720;23.252;2023-02-19T09:27:18;95203.72;;;23.13;34.11
20620;BME280;10469;42.720;23.252;2023-02-19T09:29:44;95199.16;;;23.08;34.90
20620;BME280;10469;42.720;23.252;2023-02-19T09:32:10;95193.59;;;21.70;36.00
20620;BME280;10469;42.720;23.252;2023-02-19T09:34:36;95183.50;;;21.71;36.13
20620;BME280;10469;42.720;23.252;2023-02-19T09:37:04;95188.47;;;22.70;35.89
20620;BME280;10469;42.720;23.252;2023-02-19T09:39:30;95194.47;;;22.59;35.97
20620;BME280;10469;42.720;23.252;2023-02-19T09:41:57;95185.03;;;24.27;33.50
20620;BME280;10469;42.720;23.252;2023-02-19T09:44:26;95167.41;;;24.50;33.33
20620;BME280;10469;42.720;23.252;2023-02-19T09:46:55;95184.53;;;25.48;32.13
20620;BME280;10469;42.720;23.252;2023-02-19T09:49:42;95187.09;;;20.96;37.36
20620;BME280;10469;42.720;23.252;2023-02-19T09:54:48;95171.03;;;22.11;36.37
20620;BME280;10469;42.720;23.252;2023-02-19T09:57:18;95150.38;;;23.24;34.92
20620;BME280;10469;42.720;23.252;2023-02-19T09:59:49;95166.84;;;21.40;36.95
20620;BME280;10469;42.720;23.252;2023-02-19T10:02:23;95157.91;;;22.54;36.02
20620;BME280;10469;42.720;23.252;2023-02-19T10:04:50;95144.78;;;25.02;32.29
20620;BME280;10469;42.720;23.252;2023-02-19T10:07:47;95135.38;;;24.86;31.76
20620;BME280;10469;42.720;23.252;2023-02-19T10:12:41;95139.28;;;22.57;33.59
20620;BME280;10469;42.720;23.252;2023-02-19T10:15:31;95135.72;;;21.87;35.23
20620;BME280;10469;42.720;23.252;2023-02-19T10:17:58;95132.31;;;22.50;35.02
20620;BME280;10469;42.720;23.252;2023-02-19T10:20:25;95111.25;;;25.22;31.89
20620;BME280;10469;42.720;23.252;2023-02-19T10:23:03;95111.66;;;24.81;31.76
20620;BME280;10469;42.720;23.252;2023-02-19T10:25:30;95106.34;;;25.54;30.94
20620;BME280;10469;42.720;23.252;2023-02-19T10:28:00;95102.34;;;26.07;30.51
20620;BME280;10469;42.720;23.252;2023-02-19T10:30:31;95106.28;;;23.03;31.63
20620;BME280;10469;42.720;23.252;2023-02-19T10:47:49;95066.31;;;21.47;35.08
20620;BME280;10469;42.720;23.252;2023-02-19T11:12:01;94999.03;;;21.10;35.57
20620;BME280;10469;42.720;23.252;2023-02-19T11:14:30;95010.22;;;20.94;35.81
20620;BME280;10469;42.720;23.252;2023-02-19T11:16:57;94998.78;;;22.58;34.81
20620;BME280;10469;42.720;23.252;2023-02-19T11:21:58;95001.53;;;21.39;35.33
20620;BME280;10469;42.720;23.252;2023-02-19T11:24:31;94985.44;;;22.06;33.83
20620;BME280;10469;42.720;23.252;2023-02-19T11:27:00;94977.00;;;21.39;34.33
20620;BME280;10469;42.720;23.252;2023-02-19T11:29:27;94980.22;;;21.41;34.86
20620;BME280;10469;42.720;23.252;2023-02-19T11:32:19;94971.50;;;23.82;31.04
20620;BME280;10469;42.720;23.252;2023-02-19T11:34:47;94948.50;;;23.43;31.45
20620;BME280;10469;42.720;23.252;2023-02-19T11:37:19;94956.25;;;23.50;31.35
20620;BME280;10469;42.720;23.252;2023-02-19T11:39:47;94954.53;;;23.63;32.20
20620;BME280;10469;42.720;23.252;2023-02-19T11:42:26;94943.75;;;24.58;29.91
20620;BME280;10469;42.720;23.252;2023-02-19T11:48:09;94936.47;;;24.80;29.25
20620;BME280;10469;42.720;23.252;2023-02-19T11:53:50;94930.22;;;26.02;28.40
20620;BME280;10469;42.720;23.252;2023-02-19T11:56:31;94907.06;;;26.87;27.82
20620;BME280;10469;42.720;23.252;2023-02-19T11:59:02;94929.81;;;23.94;29.17
20620;BME280;10469;42.720;23.252;2023-02-19T12:02:13;94903.53;;;25.82;28.23
20620;BME280;10469;42.720;23.252;2023-02-19T12:05:04;94920.84;;;24.71;28.94
20620;BME280;10469;42.720;23.252;2023-02-19T12:10:22;94899.13;;;25.51;27.56
20620;BME280;10469;42.720;23.252;2023-02-19T12:24:15;94868.63;;;22.70;30.56
20620;BME280;10469;42.720;23.252;2023-02-19T12:32:40;94852.59;;;26.26;26.71
20620;BME280;10469;42.720;23.252;2023-02-19T12:35:36;94853.34;;;25.64;27.20
20620;BME280;10469;42.720;23.252;2023-02-19T12:41:14;94843.13;;;24.33;29.22
20620;BME280;10469;42.720;23.252;2023-02-19T12:43:59;94831.13;;;23.33;29.48
20620;BME280;10469;42.720;23.252;2023-02-19T12:46:36;94830.78;;;22.55;30.27
20620;BME280;10469;42.720;23.252;2023-02-19T12:49:12;94823.47;;;23.04;30.25
20620;BME280;10469;42.720;23.252;2023-02-19T12:51:48;94816.53;;;22.36;30.87
20620;BME280;10469;42.720;23.252;2023-02-19T12:54:29;94814.06;;;22.25;31.36
20620;BME280;10469;42.720;23.252;2023-02-19T12:57:04;94803.94;;;22.57;31.11
20620;BME280;10469;42.720;23.252;2023-02-19T12:59:35;94790.47;;;23.00;30.38
20620;BME280;10469;42.720;23.252;2023-02-19T13:04:50;94797.00;;;20.84;32.44
20620;BME280;10469;42.720;23.252;2023-02-19T13:07:26;94779.84;;;21.83;31.86
20620;BME280;10469;42.720;23.252;2023-02-19T13:10:02;94786.75;;;21.67;31.86
20620;BME280;10469;42.720;23.252;2023-02-19T13:12:37;94781.16;;;21.86;31.39
20620;BME280;10469;42.720;23.252;2023-02-19T13:15:23;94778.41;;;21.63;32.05
20620;BME280;10469;42.720;23.252;2023-02-19T13:17:53;94775.47;;;20.96;32.78
20620;BME280;10469;42.720;23.252;2023-02-19T13:20:39;94773.09;;;21.44;32.59
20620;BME280;10469;42.720;23.252;2023-02-19T13:36:38;94747.59;;;20.44;34.26
20620;BME280;10469;42.720;23.252;2023-02-19T13:39:06;94745.63;;;20.49;33.97
20620;BME280;10469;42.720;23.252;2023-02-19T13:41:49;94738.91;;;20.28;34.21
20620;BME280;10469;42.720;23.252;2023-02-19T13:44:21;94738.28;;;20.03;34.24
20620;BME280;10469;42.720;23.252;2023-02-19T13:46:49;94744.34;;;20.14;34.52
20620;BME280;10469;42.720;23.252;2023-02-19T13:59:50;94718.59;;;19.03;36.00
20620;BME280;10469;42.720;23.252;2023-02-19T14:10:00;94716.88;;;19.64;35.36
20620;BME280;10469;42.720;23.252;2023-02-19T14:12:31;94713.09;;;19.60;35.29
20620;BME280;10469;42.720;23.252;2023-02-19T14:15:59;94716.97;;;19.40;35.59
20620;BME280;10469;42.720;23.252;2023-02-19T14:18:42;94716.31;;;19.29;35.92
20620;BME280;10469;42.720;23.252;2023-02-19T14:21:33;94711.63;;;19.16;36.07
20620;BME280;10469;42.720;23.252;2023-02-19T14:24:00;94697.63;;;19.09;36.38
20620;BME280;10469;42.720;23.252;2023-02-19T14:26:26;94686.00;;;19.22;36.15
20620;BME280;10469;42.720;23.252;2023-02-19T14:28:52;94692.94;;;19.66;36.11
20620;BME280;10469;42.720;23.252;2023-02-19T14:33:47;94696.44;;;20.13;35.25
20620;BME280;10469;42.720;23.252;2023-02-19T14:39:20;94691.91;;;19.95;35.46
20620;BME280;10469;42.720;23.252;2023-02-19T14:41:50;94688.72;;;19.55;35.09
20620;BME280;10469;42.720;23.252;2023-02-19T14:44:23;94689.00;;;19.72;35.43
20620;BME280;10469;42.720;23.252;2023-02-19T14:46:57;94684.97;;;19.70;34.82
20620;BME280;10469;42.720;23.252;2023-02-19T14:49:28;94681.50;;;19.32;38.00
20620;BME280;10469;42.720;23.252;2023-02-19T14:51:58;94677.47;;;19.10;39.50
20620;BME280;10469;42.720;23.252;2023-02-19T14:54:36;94669.03;;;18.74;40.54
20620;BME280;10469;42.720;23.252;2023-02-19T14:57:09;94667.00;;;18.61;41.10
20620;BME280;10469;42.720;23.252;2023-02-19T14:59:36;94676.25;;;18.60;41.30
20620;BME280;10469;42.720;23.252;2023-02-19T15:02:12;94680.75;;;18.26;42.17
20620;BME280;10469;42.720;23.252;2023-02-19T15:04:38;94678.03;;;18.26;42.07
20620;BME280;10469;42.720;23.252;2023-02-19T15:07:09;94662.47;;;18.08;43.38
20620;BME280;10469;42.720;23.252;2023-02-19T15:09:43;94676.69;;;18.00;42.84
20620;BME280;10469;42.720;23.252;2023-02-19T15:12:25;94662.22;;;17.51;43.92
20620;BME280;10469;42.720;23.252;2023-02-19T15:14:56;94676.44;;;17.67;43.68
20620;BME280;10469;42.720;23.252;2023-02-19T15:17:29;94681.00;;;17.43;44.21
20620;BME280;10469;42.720;23.252;2023-02-19T15:19:58;94683.31;;;17.25;45.25
20620;BME280;10469;42.720;23.252;2023-02-19T15:22:25;94683.13;;;17.12;45.80
20620;BME280;10469;42.720;23.252;2023-02-19T15:24:53;94678.41;;;16.93;46.22
20620;BME280;10469;42.720;23.252;2023-02-19T15:27:22;94670.66;;;16.76;47.13
20620;BME280;10469;42.720;23.252;2023-02-19T15:29:50;94682.22;;;16.87;47.26